Suehiro Maru No.8 — JK5423 — position and weather

sailwx.info

Track history (hours):
 
Tides and Currents Weather Stations Pressure Air Temp Water Temp Dewpoint Dewpoint Depression Visibility Wind Speed Wind Dir Waves Ship Positions

Suehiro Maru No.8

Last reported at 2015-May-22 23:18 UTC. Time now 2015-May-25 01:30 UTC.
Position N 33°60' E 135°01'.

Length 88 m; draft 3.4 m.

Type: Cargo ship. MMSI: 431400446.

Date/timePositionNaut miles runAvg speedWind from/ knotsBaromVisibWave heightAir tempDewpointWater temp
2015-May-22 23:18N 33°60' E 135°01'912.2
2015-May-22 22:33N 34°09' E 135°03'7 6.8
2015-May-22 21:33N 34°15' E 135°07'0 0.0
2015-May-22 20:34N 34°15' E 135°07'0 0.0
2015-May-22 19:34N 34°15' E 135°07'0 0.0
2015-May-22 18:33N 34°15' E 135°07'0 0.0
2015-May-22 17:33N 34°15' E 135°07'0 0.0
2015-May-22 16:33N 34°15' E 135°07'0 0.0
2015-May-22 15:33N 34°15' E 135°07'0 0.0
2015-May-22 14:33N 34°15' E 135°07'0 0.0
2015-May-22 13:34N 34°15' E 135°07'0 0.0
2015-May-22 12:34N 34°15' E 135°07'0 0.0
2015-May-22 11:34N 34°15' E 135°07'0 0.0
2015-May-22 10:34N 34°15' E 135°07'0 0.0
2015-May-22 09:33N 34°15' E 135°07'0 0.1
2015-May-22 08:33N 34°15' E 135°07'1 1.2
2015-May-22 07:34N 34°15' E 135°06'0 0.0
2015-May-22 06:34N 34°15' E 135°06'0 0.0
2015-May-22 05:33N 34°15' E 135°06'0 0.0
2015-May-22 04:33N 34°15' E 135°06'0 0.0
2015-May-22 03:33N 34°15' E 135°06'0 0.0
2015-May-22 02:34N 34°15' E 135°06'0 0.0
2015-May-22 01:33N 34°15' E 135°06'0 0.0
2015-May-22 00:33N 34°15' E 135°06'0 0.1
2015-May-21 23:33N 34°15' E 135°06'0 0.0
2015-May-21 22:34N 34°15' E 135°06'0 0.1
2015-May-21 21:34N 34°15' E 135°06'0 0.0
2015-May-21 20:34N 34°15' E 135°06'0 0.0
2015-May-21 19:33N 34°15' E 135°06'0 0.0
2015-May-21 18:34N 34°15' E 135°06'1 0.5
2015-May-21 17:33N 34°15' E 135°05'1212.5
2015-May-21 16:33N 34°27' E 135°04'1010.1
2015-May-21 15:32N 34°37' E 134°58'1211.9
2015-May-21 14:33N 34°41' E 134°45'  
2015-May-19 04:10N 34°07' E 134°46'  
2015-May-16 11:20N 34°01' E 135°02'912.0
2015-May-16 10:33N 34°10' E 135°04'5 4.9
2015-May-16 09:33N 34°15' E 135°07'0 0.0
2015-May-16 08:33N 34°15' E 135°07'0 0.0
2015-May-16 07:33N 34°15' E 135°07'0 0.0
2015-May-16 06:33N 34°15' E 135°07'0 0.0
2015-May-16 05:33N 34°15' E 135°07'0 0.0
2015-May-16 04:33N 34°15' E 135°07'0 0.0
2015-May-16 03:33N 34°15' E 135°07'0 0.0
2015-May-16 02:33N 34°15' E 135°07'0 0.0
2015-May-16 01:33N 34°15' E 135°07'0 0.0
2015-May-16 00:33N 34°15' E 135°07'0 0.0
2015-May-15 23:33N 34°15' E 135°07'0 0.0
2015-May-15 22:33N 34°15' E 135°07'0 0.0
2015-May-15 21:33N 34°15' E 135°07'1 0.6
2015-May-15 20:33N 34°15' E 135°06'0 0.1
2015-May-15 19:33N 34°15' E 135°06'0 0.1
2015-May-15 18:33N 34°15' E 135°06'0 0.0
2015-May-15 17:33N 34°15' E 135°06'1 0.8
2015-May-15 16:33N 34°15' E 135°05'1110.7
2015-May-15 15:33N 34°25' E 135°03'1211.8
2015-May-15 14:32N 34°37' E 134°58'31 1.5
2015-May-14 17:25N 34°07' E 134°46'220 9.5
2015-May-13 18:24N 34°47' E 139°08'1011.0
2015-May-13 17:28N 34°54' E 139°17'1011.0
2015-May-13 16:33N 35°00' E 139°27'1111.1
2015-May-13 15:33N 35°06' E 139°38'1110.8
2015-May-13 14:34N 35°15' E 139°46'1010.3
2015-May-13 13:33N 35°25' E 139°44'6 6.1
2015-May-13 12:33N 35°22' E 139°51'0 0.0
2015-May-13 11:33N 35°22' E 139°51'0 0.0
2015-May-13 10:34N 35°22' E 139°51'0 0.0
2015-May-13 09:33N 35°22' E 139°51'0 0.0
2015-May-13 08:34N 35°22' E 139°51'1 1.1
2015-May-13 07:34N 35°22' E 139°49'0 0.0
2015-May-13 06:34N 35°22' E 139°49'0 0.0
2015-May-13 05:33N 35°22' E 139°49'0 0.0
2015-May-13 04:34N 35°22' E 139°49'0 0.0
2015-May-13 03:34N 35°22' E 139°49'0 0.0
2015-May-13 02:34N 35°22' E 139°49'0 0.0
2015-May-13 01:33N 35°22' E 139°49'0 0.0
2015-May-13 00:33N 35°22' E 139°49'0 0.0
2015-May-12 23:33N 35°22' E 139°49'  
Track history (hours):
 
Tides and Currents Weather Stations Pressure Air Temp Water Temp Dewpoint Dewpoint Depression Visibility Wind Speed Wind Dir Waves Ship Positions

Suehiro Maru No.8

Last reported at 2015-May-22 23:18 UTC. Time now 2015-May-25 01:30 UTC.
Position N 33°60' E 135°01'.

Length 88 m; draft 3.4 m.

Type: Cargo ship. MMSI: 431400446.

Date/timePositionNaut miles runAvg speedWind from/ knotsBaromVisibWave heightAir tempDewpointWater temp
2015-May-22 23:18N 33°60' E 135°01'912.2
2015-May-22 22:33N 34°09' E 135°03'7 6.8
2015-May-22 21:33N 34°15' E 135°07'0 0.0
2015-May-22 20:34N 34°15' E 135°07'0 0.0
2015-May-22 19:34N 34°15' E 135°07'0 0.0
2015-May-22 18:33N 34°15' E 135°07'0 0.0
2015-May-22 17:33N 34°15' E 135°07'0 0.0
2015-May-22 16:33N 34°15' E 135°07'0 0.0
2015-May-22 15:33N 34°15' E 135°07'0 0.0
2015-May-22 14:33N 34°15' E 135°07'0 0.0
2015-May-22 13:34N 34°15' E 135°07'0 0.0
2015-May-22 12:34N 34°15' E 135°07'0 0.0
2015-May-22 11:34N 34°15' E 135°07'0 0.0
2015-May-22 10:34N 34°15' E 135°07'0 0.0
2015-May-22 09:33N 34°15' E 135°07'0 0.1
2015-May-22 08:33N 34°15' E 135°07'1 1.2
2015-May-22 07:34N 34°15' E 135°06'0 0.0
2015-May-22 06:34N 34°15' E 135°06'0 0.0
2015-May-22 05:33N 34°15' E 135°06'0 0.0
2015-May-22 04:33N 34°15' E 135°06'0 0.0
2015-May-22 03:33N 34°15' E 135°06'0 0.0
2015-May-22 02:34N 34°15' E 135°06'0 0.0
2015-May-22 01:33N 34°15' E 135°06'0 0.0
2015-May-22 00:33N 34°15' E 135°06'0 0.1
2015-May-21 23:33N 34°15' E 135°06'0 0.0
2015-May-21 22:34N 34°15' E 135°06'0 0.1
2015-May-21 21:34N 34°15' E 135°06'0 0.0
2015-May-21 20:34N 34°15' E 135°06'0 0.0
2015-May-21 19:33N 34°15' E 135°06'0 0.0
2015-May-21 18:34N 34°15' E 135°06'1 0.5
2015-May-21 17:33N 34°15' E 135°05'1212.5
2015-May-21 16:33N 34°27' E 135°04'1010.1
2015-May-21 15:32N 34°37' E 134°58'1211.9
2015-May-21 14:33N 34°41' E 134°45'  
2015-May-19 04:10N 34°07' E 134°46'  
2015-May-16 11:20N 34°01' E 135°02'912.0
2015-May-16 10:33N 34°10' E 135°04'5 4.9
2015-May-16 09:33N 34°15' E 135°07'0 0.0
2015-May-16 08:33N 34°15' E 135°07'0 0.0
2015-May-16 07:33N 34°15' E 135°07'0 0.0
2015-May-16 06:33N 34°15' E 135°07'0 0.0
2015-May-16 05:33N 34°15' E 135°07'0 0.0
2015-May-16 04:33N 34°15' E 135°07'0 0.0
2015-May-16 03:33N 34°15' E 135°07'0 0.0
2015-May-16 02:33N 34°15' E 135°07'0 0.0
2015-May-16 01:33N 34°15' E 135°07'0 0.0
2015-May-16 00:33N 34°15' E 135°07'0 0.0
2015-May-15 23:33N 34°15' E 135°07'0 0.0
2015-May-15 22:33N 34°15' E 135°07'0 0.0
2015-May-15 21:33N 34°15' E 135°07'1 0.6
2015-May-15 20:33N 34°15' E 135°06'0 0.1
2015-May-15 19:33N 34°15' E 135°06'0 0.1
2015-May-15 18:33N 34°15' E 135°06'0 0.0
2015-May-15 17:33N 34°15' E 135°06'1 0.8
2015-May-15 16:33N 34°15' E 135°05'1110.7
2015-May-15 15:33N 34°25' E 135°03'1211.8
2015-May-15 14:32N 34°37' E 134°58'31 1.5
2015-May-14 17:25N 34°07' E 134°46'220 9.5
2015-May-13 18:24N 34°47' E 139°08'1011.0
2015-May-13 17:28N 34°54' E 139°17'1011.0
2015-May-13 16:33N 35°00' E 139°27'1111.1
2015-May-13 15:33N 35°06' E 139°38'1110.8
2015-May-13 14:34N 35°15' E 139°46'1010.3
2015-May-13 13:33N 35°25' E 139°44'6 6.1
2015-May-13 12:33N 35°22' E 139°51'0 0.0
2015-May-13 11:33N 35°22' E 139°51'0 0.0
2015-May-13 10:34N 35°22' E 139°51'0 0.0
2015-May-13 09:33N 35°22' E 139°51'0 0.0
2015-May-13 08:34N 35°22' E 139°51'1 1.1
2015-May-13 07:34N 35°22' E 139°49'0 0.0
2015-May-13 06:34N 35°22' E 139°49'0 0.0
2015-May-13 05:33N 35°22' E 139°49'0 0.0
2015-May-13 04:34N 35°22' E 139°49'0 0.0
2015-May-13 03:34N 35°22' E 139°49'0 0.0
2015-May-13 02:34N 35°22' E 139°49'0 0.0
2015-May-13 01:33N 35°22' E 139°49'0 0.0
2015-May-13 00:33N 35°22' E 139°49'0 0.0
2015-May-12 23:33N 35°22' E 139°49'  

Dump ship's entire track history